Terminal Aerodrome Forecast
Issued by NWS

Home | Current Version | Previous Version | Text Only | Print | Product List | Glossary Off
Versions: 1 2 3 4 5 6 7 8 9 10 11 12 13 14

000
FTUS43 KMPX 011738
TAFRNH
TAF
KRNH 011738Z 0118/0218 31009KT P6SM SCT009 OVC020
     FM012100 31008KT P6SM BKN020 OVC035
     FM021200 32004KT P6SM OVC015=

USA.gov is the U.S. government's official web portal to all federal, state and local government web resources and services.